createdAt,value
2018-03-21T00:00:06.661Z,62.20
2018-03-21T00:02:40.024Z,62.90
2018-03-21T00:05:13.088Z,62.80
2018-03-21T00:07:46.023Z,62.80
2018-03-21T00:10:18.532Z,63.20
2018-03-21T00:12:51.637Z,64.10
2018-03-21T00:15:24.361Z,64.10
2018-03-21T00:17:56.966Z,63.90
2018-03-21T00:20:30.142Z,63.90
2018-03-21T00:23:04.115Z,63.40
2018-03-21T00:25:36.481Z,63.40
2018-03-21T00:28:09.018Z,63.70
2018-03-21T00:30:42.201Z,64.40
2018-03-21T00:33:15.571Z,64.80
2018-03-21T00:35:55.072Z,64.70
2018-03-21T00:38:28.487Z,64.20
2018-03-21T00:41:01.118Z,64.20
2018-03-21T00:43:34.604Z,65.10
2018-03-21T00:46:07.178Z,65.10
2018-03-21T00:48:39.639Z,65.20
2018-03-21T00:51:12.060Z,65.40
2018-03-21T00:53:44.448Z,65.40
2018-03-21T00:56:16.803Z,65.80
2018-03-21T00:58:49.201Z,66.00
2018-03-21T01:01:21.826Z,66.00
2018-03-21T01:03:54.372Z,65.90
2018-03-21T01:06:26.766Z,65.90
2018-03-21T01:08:59.237Z,66.20
2018-03-21T01:11:32.501Z,67.30
2018-03-21T01:14:04.892Z,66.50
2018-03-21T01:16:37.298Z,66.80
2018-03-21T01:19:09.967Z,66.90
2018-03-21T01:21:42.278Z,67.00
2018-03-21T01:24:14.833Z,67.00
2018-03-21T01:26:47.173Z,67.10
2018-03-21T01:29:19.623Z,67.10
2018-03-21T01:31:53.609Z,67.10
2018-03-21T01:34:26.362Z,67.10
2018-03-21T01:36:59.697Z,67.70
2018-03-21T01:39:32.136Z,67.70
2018-03-21T01:42:04.764Z,67.10
2018-03-21T01:44:37.466Z,67.40
2018-03-21T01:47:09.911Z,67.30
2018-03-21T01:49:42.256Z,67.50
2018-03-21T01:52:15.537Z,68.50
2018-03-21T01:54:47.916Z,68.50
2018-03-21T01:57:20.351Z,68.70
2018-03-21T01:59:53.647Z,68.70
2018-03-21T02:02:26.277Z,68.70
2018-03-21T02:04:59.369Z,69.30
2018-03-21T02:07:32.062Z,69.20
2018-03-21T02:10:04.683Z,69.00
2018-03-21T02:12:37.255Z,68.40
2018-03-21T02:15:10.377Z,68.90
2018-03-21T02:17:43.651Z,69.10
2018-03-21T02:20:16.791Z,69.00
2018-03-21T02:22:50.136Z,69.00
2018-03-21T02:25:22.636Z,69.00
2018-03-21T02:27:55.492Z,69.90
2018-03-21T02:30:27.972Z,69.80
2018-03-21T02:33:01.301Z,70.40
2018-03-21T02:35:33.780Z,69.80
2018-03-21T02:38:06.263Z,69.80
2018-03-21T02:40:39.408Z,70.30
2018-03-21T02:43:12.727Z,70.40
2018-03-21T02:45:45.331Z,70.30
2018-03-21T02:48:17.819Z,70.40
2018-03-21T02:50:50.405Z,70.40
2018-03-21T02:53:22.948Z,70.80
2018-03-21T02:55:55.256Z,70.70
2018-03-21T02:58:27.706Z,70.40
2018-03-21T03:01:00.397Z,70.40
2018-03-21T03:03:33.419Z,70.70
2018-03-21T03:06:05.882Z,70.70
2018-03-21T03:08:38.423Z,70.80
2018-03-21T03:11:11.688Z,70.80
2018-03-21T03:13:44.052Z,70.80
2018-03-21T03:16:16.650Z,70.80
2018-03-21T03:18:49.121Z,70.60
2018-03-21T03:21:21.648Z,70.80
2018-03-21T03:23:54.204Z,71.10
2018-03-21T03:26:26.741Z,71.30
2018-03-21T03:28:59.994Z,71.30
2018-03-21T03:31:32.810Z,71.30
2018-03-21T03:34:05.371Z,70.70
2018-03-21T03:36:37.821Z,70.80
2018-03-21T03:39:10.468Z,70.90
2018-03-21T03:41:43.561Z,72.10
2018-03-21T03:44:16.126Z,72.10
2018-03-21T03:46:48.676Z,72.10
2018-03-21T03:49:21.021Z,72.30
2018-03-21T03:51:53.689Z,72.10
2018-03-21T03:54:27.002Z,71.80
2018-03-21T03:56:59.537Z,71.90
2018-03-21T03:59:31.996Z,72.20
2018-03-21T04:02:05.183Z,72.30
2018-03-21T04:04:38.536Z,71.90
2018-03-21T04:07:10.902Z,71.90
2018-03-21T04:09:43.308Z,71.90
2018-03-21T04:12:16.468Z,72.20
2018-03-21T04:14:48.937Z,72.20
2018-03-21T04:17:21.304Z,72.40
2018-03-21T04:19:53.711Z,72.70
2018-03-21T04:22:26.267Z,72.40
2018-03-21T04:24:58.812Z,72.40
2018-03-21T04:27:31.408Z,72.60
2018-03-21T04:30:04.148Z,72.80
2018-03-21T04:32:36.740Z,72.60
2018-03-21T04:35:09.301Z,72.70
2018-03-21T04:37:42.053Z,72.80
2018-03-21T04:40:14.553Z,73.00
2018-03-21T04:42:46.914Z,72.80
2018-03-21T04:45:19.914Z,73.10
2018-03-21T04:47:52.709Z,73.80
2018-03-21T04:50:26.242Z,73.20
2018-03-21T04:52:58.842Z,73.20
2018-03-21T04:55:31.363Z,73.20
2018-03-21T04:58:04.456Z,73.00
2018-03-21T05:00:36.960Z,72.90
2018-03-21T05:03:09.658Z,73.10
2018-03-21T05:05:42.187Z,72.90
2018-03-21T05:08:14.896Z,72.70
2018-03-21T05:10:47.412Z,73.20
2018-03-21T05:13:20.120Z,73.40
2018-03-21T05:15:52.702Z,73.30
2018-03-21T05:18:25.302Z,73.20
2018-03-21T05:20:57.673Z,73.20
2018-03-21T05:23:30.962Z,73.30
2018-03-21T05:26:04.188Z,73.30
2018-03-21T05:28:36.752Z,73.30
2018-03-21T05:31:09.252Z,73.30
2018-03-21T05:33:42.463Z,73.60
2018-03-21T05:36:15.631Z,73.40
2018-03-21T05:48:33.958Z,73.80
2018-03-21T05:51:06.572Z,73.70
2018-03-21T05:53:39.234Z,73.70
2018-03-21T05:56:12.754Z,74.60
2018-03-21T05:58:45.399Z,73.90
2018-03-21T06:01:18.129Z,74.40
2018-03-21T06:03:50.607Z,73.90
2018-03-21T06:06:23.071Z,73.90
2018-03-21T06:08:55.643Z,73.60
2018-03-21T06:11:28.231Z,73.60
2018-03-21T06:14:00.982Z,73.90
2018-03-21T06:16:33.587Z,74.10
2018-03-21T06:19:06.356Z,74.00
2018-03-21T06:21:39.719Z,73.40
2018-03-21T06:24:12.517Z,73.30
2018-03-21T06:26:44.998Z,73.20
2018-03-21T06:29:17.583Z,73.00
2018-03-21T06:31:50.077Z,72.70
2018-03-21T06:34:22.832Z,72.60
2018-03-21T06:36:55.293Z,72.60
2018-03-21T06:39:29.344Z,72.20
2018-03-21T06:42:01.756Z,72.20
2018-03-21T06:44:34.296Z,71.70
2018-03-21T06:47:06.913Z,71.70
2018-03-21T06:49:39.332Z,71.70
2018-03-21T06:52:12.009Z,71.90
2018-03-21T06:54:44.398Z,71.60
2018-03-21T06:57:17.103Z,71.30
2018-03-21T06:59:49.587Z,70.80
2018-03-21T07:02:22.889Z,69.60
2018-03-21T07:04:55.472Z,69.60
2018-03-21T07:07:28.633Z,68.90
2018-03-21T07:10:01.593Z,68.80
2018-03-21T07:12:35.008Z,68.40
2018-03-21T07:15:20.473Z,67.90
2018-03-21T07:17:53.673Z,67.90
2018-03-21T07:20:26.239Z,67.40
2018-03-21T07:22:58.901Z,67.10
2018-03-21T07:25:32.306Z,66.00
2018-03-21T07:28:04.788Z,65.90
2018-03-21T07:30:37.977Z,65.20
2018-03-21T07:33:11.781Z,65.20
2018-03-21T07:35:45.054Z,64.80
2018-03-21T07:38:17.371Z,64.80
2018-03-21T07:40:50.592Z,64.30
2018-03-21T07:43:23.899Z,64.50
2018-03-21T07:45:56.531Z,64.50
2018-03-21T07:48:28.911Z,64.90
2018-03-21T07:51:02.455Z,64.50
2018-03-21T07:53:35.632Z,63.90
2018-03-21T07:56:08.069Z,63.90
2018-03-21T07:58:40.779Z,63.80
2018-03-21T08:01:14.073Z,63.50
2018-03-21T08:03:46.680Z,63.50
2018-03-21T08:06:19.085Z,63.40
2018-03-21T08:08:51.658Z,63.30
2018-03-21T08:11:24.305Z,63.10
2018-03-21T08:13:57.667Z,62.80
2018-03-21T08:16:30.030Z,63.00
2018-03-21T08:19:03.953Z,62.80
2018-03-21T08:21:36.342Z,63.40
2018-03-21T08:24:08.734Z,62.70
2018-03-21T08:26:41.230Z,61.80
2018-03-21T08:29:13.774Z,61.80
2018-03-21T08:31:53.383Z,61.50
2018-03-21T08:34:25.982Z,61.50
2018-03-21T08:36:58.674Z,61.80
2018-03-21T08:39:31.308Z,61.80
2018-03-21T08:42:03.770Z,61.60
2018-03-21T08:44:36.313Z,62.00
2018-03-21T08:47:08.707Z,61.80
2018-03-21T08:49:41.831Z,61.80
2018-03-21T08:52:15.463Z,61.60
2018-03-21T08:54:47.949Z,61.60
2018-03-21T08:57:20.306Z,61.60
2018-03-21T08:59:52.914Z,61.50
2018-03-21T09:02:26.090Z,60.90
2018-03-21T09:04:58.450Z,61.00
2018-03-21T09:07:32.330Z,59.90
2018-03-21T09:10:04.714Z,60.40
2018-03-21T09:12:37.104Z,59.70
2018-03-21T09:15:09.698Z,59.60
2018-03-21T09:17:42.258Z,59.30
2018-03-21T09:20:15.075Z,59.30
2018-03-21T09:22:47.423Z,59.60
2018-03-21T09:25:20.493Z,59.80
2018-03-21T09:27:52.865Z,59.80
2018-03-21T09:30:25.323Z,60.00
2018-03-21T09:32:58.804Z,59.00
2018-03-21T09:35:31.187Z,59.00
2018-03-21T09:38:04.269Z,58.30
2018-03-21T09:40:37.510Z,58.50
2018-03-21T09:43:11.001Z,57.60
2018-03-21T09:45:43.715Z,57.60
2018-03-21T09:48:16.727Z,57.50
2018-03-21T09:50:49.802Z,56.60
2018-03-21T09:53:22.132Z,56.60
2018-03-21T09:55:54.713Z,56.50
2018-03-21T09:58:27.150Z,56.20
2018-03-21T10:00:59.547Z,55.60
2018-03-21T10:03:32.015Z,55.30
2018-03-21T10:06:04.584Z,54.10
2018-03-21T10:08:37.028Z,53.10
2018-03-21T10:11:09.529Z,52.80
2018-03-21T10:13:42.064Z,53.50
2018-03-21T10:16:14.393Z,53.30
2018-03-21T10:18:47.094Z,53.00
2018-03-21T10:21:20.359Z,52.60
2018-03-21T10:23:52.831Z,52.00
2018-03-21T10:26:25.524Z,51.10
2018-03-21T10:28:58.049Z,50.80
2018-03-21T10:31:30.530Z,48.60
2018-03-21T10:34:03.065Z,48.90
2018-03-21T10:36:35.789Z,49.70
2018-03-21T10:39:08.605Z,50.70
2018-03-21T10:41:41.213Z,49.90
2018-03-21T10:44:13.837Z,50.30
2018-03-21T10:46:46.280Z,50.00
2018-03-21T10:49:20.119Z,48.50
2018-03-21T10:51:53.048Z,48.50
2018-03-21T10:54:25.763Z,48.40
2018-03-21T10:56:58.123Z,48.70
2018-03-21T10:59:30.608Z,48.90
2018-03-21T11:02:09.158Z,48.60
2018-03-21T11:04:42.400Z,48.70
2018-03-21T11:07:14.971Z,48.60
2018-03-21T11:09:47.529Z,48.80
2018-03-21T11:12:20.108Z,49.20
2018-03-21T11:14:52.778Z,48.20
2018-03-21T11:17:25.248Z,48.20
2018-03-21T11:19:57.989Z,48.30
2018-03-21T11:22:31.267Z,49.90
2018-03-21T11:25:03.865Z,49.80
2018-03-21T11:27:36.473Z,49.80
2018-03-21T11:30:09.105Z,50.20
2018-03-21T11:32:41.756Z,50.70
2018-03-21T11:35:14.199Z,50.30
2018-03-21T11:37:46.908Z,51.10
2018-03-21T11:40:19.521Z,50.80
2018-03-21T11:42:51.913Z,50.60
2018-03-21T11:45:24.513Z,50.00
2018-03-21T11:47:59.464Z,50.20
2018-03-21T11:50:31.934Z,50.10
2018-03-21T11:53:05.103Z,48.90
2018-03-21T11:55:37.759Z,48.80
2018-03-21T11:58:10.232Z,49.50
2018-03-21T12:00:43.481Z,50.20
2018-03-21T12:03:15.854Z,50.10
2018-03-21T12:05:48.279Z,49.40
2018-03-21T12:08:20.773Z,50.00
2018-03-21T12:10:53.614Z,49.90
2018-03-21T12:13:26.250Z,51.00
2018-03-21T12:15:59.110Z,50.00
2018-03-21T12:18:31.635Z,50.30
2018-03-21T12:21:04.259Z,49.30
2018-03-21T12:23:36.785Z,47.00
2018-03-21T12:26:09.404Z,47.80
2018-03-21T12:28:41.927Z,49.60
2018-03-21T12:31:14.649Z,47.70
2018-03-21T12:33:47.228Z,48.10
2018-03-21T12:36:19.738Z,47.60
2018-03-21T12:38:52.147Z,46.00
2018-03-21T12:41:24.628Z,46.10
2018-03-21T12:43:57.401Z,46.30
2018-03-21T12:46:30.533Z,46.90
2018-03-21T12:49:04.730Z,48.90
2018-03-21T12:51:37.355Z,48.90
2018-03-21T12:54:10.195Z,49.20
2018-03-21T12:56:42.644Z,48.90
2018-03-21T12:59:15.151Z,48.30
2018-03-21T13:01:47.723Z,50.10
2018-03-21T13:04:20.183Z,51.40
2018-03-21T13:06:52.784Z,51.30
2018-03-21T13:09:25.192Z,51.60
2018-03-21T13:11:57.780Z,53.20
2018-03-21T13:14:30.374Z,53.70
2018-03-21T13:17:03.136Z,53.90
2018-03-21T13:19:35.623Z,52.60
2018-03-21T13:22:07.992Z,51.20
2018-03-21T13:24:40.608Z,51.00
2018-03-21T13:27:13.114Z,51.00
2018-03-21T13:29:45.504Z,50.80
2018-03-21T13:32:18.703Z,50.30
2018-03-21T13:34:51.234Z,50.20
2018-03-21T13:37:24.522Z,49.60
2018-03-21T13:39:56.904Z,49.60
2018-03-21T13:42:29.556Z,50.30
2018-03-21T13:45:02.047Z,49.40
2018-03-21T13:47:34.643Z,48.40
2018-03-21T13:50:07.288Z,49.50
2018-03-21T13:52:40.593Z,50.70
2018-03-21T13:55:13.178Z,50.70
2018-03-21T13:57:52.640Z,49.40
2018-03-21T14:00:25.904Z,47.00
2018-03-21T14:02:59.325Z,47.80
2018-03-21T14:05:32.435Z,47.80
2018-03-21T14:08:05.020Z,48.20
2018-03-21T14:10:38.373Z,48.10
2018-03-21T14:13:11.043Z,48.10
2018-03-21T14:15:43.606Z,48.10
2018-03-21T14:18:16.199Z,49.00
2018-03-21T14:20:49.580Z,50.40
2018-03-21T14:23:22.229Z,50.30
2018-03-21T14:25:55.021Z,50.20
2018-03-21T14:28:27.746Z,50.60
2018-03-21T14:31:00.292Z,50.30
2018-03-21T14:33:32.956Z,50.20
2018-03-21T14:36:05.444Z,50.70
2018-03-21T14:38:37.873Z,50.90
2018-03-21T14:41:10.487Z,50.90
2018-03-21T14:43:43.024Z,49.80
2018-03-21T14:46:16.577Z,49.60
2018-03-21T14:48:50.040Z,50.40
2018-03-21T14:51:22.512Z,50.30
2018-03-21T14:53:55.089Z,49.10
2018-03-21T14:56:27.616Z,47.60
2018-03-21T14:58:59.963Z,47.30
2018-03-21T15:01:32.562Z,47.50
2018-03-21T15:04:06.021Z,46.30
2018-03-21T15:06:38.575Z,46.30
2018-03-21T15:09:11.245Z,45.40
2018-03-21T15:11:44.031Z,45.20
2018-03-21T15:14:16.605Z,45.10
2018-03-21T15:16:49.848Z,45.20
2018-03-21T15:19:22.370Z,45.20
2018-03-21T15:21:54.991Z,44.40
2018-03-21T15:24:28.319Z,41.70
2018-03-21T15:27:00.931Z,40.30
2018-03-21T15:29:33.460Z,38.10
2018-03-21T15:32:06.170Z,38.90
2018-03-21T15:34:38.754Z,40.20
2018-03-21T15:37:11.479Z,42.70
2018-03-21T15:39:45.561Z,46.40
2018-03-21T15:42:18.546Z,46.40
2018-03-21T15:44:51.824Z,49.00
2018-03-21T15:47:24.234Z,49.00
2018-03-21T15:49:56.805Z,48.40
2018-03-21T15:52:29.397Z,46.80
2018-03-21T15:55:02.088Z,46.40
2018-03-21T15:57:34.680Z,45.70
2018-03-21T16:00:07.005Z,46.70
2018-03-21T16:02:39.485Z,47.60
2018-03-21T16:05:12.105Z,49.30
2018-03-21T16:07:44.503Z,50.10
2018-03-21T16:10:16.988Z,49.70
2018-03-21T16:12:50.312Z,49.30
2018-03-21T16:15:23.518Z,50.50
2018-03-21T16:17:56.018Z,50.50
2018-03-21T16:20:28.750Z,51.60
2018-03-21T16:23:01.175Z,51.90
2018-03-21T16:25:33.881Z,51.70
2018-03-21T16:28:06.304Z,51.40
2018-03-21T16:30:39.530Z,51.40
2018-03-21T16:33:12.776Z,51.80
2018-03-21T16:35:45.654Z,51.80
2018-03-21T16:38:18.949Z,53.50
2018-03-21T16:40:52.841Z,54.40
2018-03-21T16:43:25.343Z,54.40
2018-03-21T16:45:57.922Z,55.40
2018-03-21T16:48:31.225Z,56.10
2018-03-21T16:51:03.776Z,55.90
2018-03-21T16:53:36.380Z,56.50
2018-03-21T16:56:08.907Z,56.50
2018-03-21T16:58:42.135Z,57.30
2018-03-21T17:01:14.660Z,57.30
2018-03-21T17:03:48.050Z,56.80
2018-03-21T17:06:21.304Z,57.00
2018-03-21T17:08:54.056Z,56.90
2018-03-21T17:11:26.522Z,56.90
2018-03-21T17:13:59.666Z,57.30
2018-03-21T17:16:32.176Z,57.30
2018-03-21T17:19:04.644Z,57.40
2018-03-21T17:21:37.307Z,57.30
2018-03-21T17:24:09.927Z,57.30
2018-03-21T17:26:42.511Z,57.30
2018-03-21T17:29:15.708Z,57.50
2018-03-21T17:31:48.296Z,57.40
2018-03-21T17:34:21.512Z,57.90
2018-03-21T17:36:54.102Z,58.10
2018-03-21T17:39:26.794Z,58.50
2018-03-21T17:41:59.351Z,58.40
2018-03-21T17:44:32.077Z,58.50
2018-03-21T17:47:04.449Z,58.70
2018-03-21T17:49:37.088Z,58.70
2018-03-21T17:52:09.644Z,58.90
2018-03-21T17:54:41.965Z,59.00
2018-03-21T17:57:14.537Z,59.00
2018-03-21T17:59:47.125Z,59.30
2018-03-21T18:02:19.801Z,59.40
2018-03-21T18:04:52.395Z,59.70
2018-03-21T18:07:25.035Z,59.50
2018-03-21T18:09:57.442Z,59.60
2018-03-21T18:12:30.641Z,59.20
2018-03-21T18:15:03.373Z,59.30
2018-03-21T18:17:36.000Z,59.70
2018-03-21T18:20:08.365Z,59.40
2018-03-21T18:22:40.902Z,59.50
2018-03-21T18:25:14.357Z,59.40
2018-03-21T18:27:47.116Z,59.40
2018-03-21T18:30:19.751Z,59.50
2018-03-21T18:32:53.041Z,60.00
2018-03-21T18:35:26.180Z,60.30
2018-03-21T18:37:58.732Z,60.20
2018-03-21T18:40:31.272Z,60.30
2018-03-21T18:43:04.305Z,60.00
2018-03-21T18:45:36.707Z,60.30
2018-03-21T18:48:09.330Z,60.40
2018-03-21T18:50:42.023Z,60.40
2018-03-21T18:53:14.657Z,60.70
2018-03-21T18:55:47.979Z,61.60
2018-03-21T18:58:20.382Z,61.60
2018-03-21T19:00:53.325Z,61.80
2018-03-21T19:03:25.717Z,62.10
2018-03-21T19:05:58.411Z,60.90
2018-03-21T19:08:30.982Z,61.50
2018-03-21T19:11:03.857Z,62.00
2018-03-21T19:13:36.517Z,62.20
2018-03-21T19:16:09.630Z,62.10
2018-03-21T19:18:42.194Z,62.10
2018-03-21T19:21:14.840Z,61.80
2018-03-21T19:23:48.369Z,62.20
2018-03-21T19:26:22.336Z,62.80
2018-03-21T19:28:54.877Z,62.80
2018-03-21T19:31:28.062Z,62.90
2018-03-21T19:34:01.242Z,63.10
2018-03-21T19:36:37.823Z,63.10
2018-03-21T19:39:10.300Z,62.30
2018-03-21T19:41:43.624Z,62.50
2018-03-21T19:44:16.265Z,62.50
2018-03-21T19:46:49.016Z,62.30
2018-03-21T19:49:22.508Z,62.20
2018-03-21T19:51:55.903Z,62.50
2018-03-21T19:54:28.776Z,61.90
2018-03-21T19:57:02.362Z,61.90
2018-03-21T19:59:34.895Z,61.30
2018-03-21T20:02:07.497Z,61.00
2018-03-21T20:04:40.341Z,61.30
2018-03-21T20:07:13.770Z,61.30
2018-03-21T20:09:46.297Z,61.10
2018-03-21T20:12:18.919Z,61.30
2018-03-21T20:14:53.558Z,60.90
2018-03-21T20:17:26.066Z,61.20
2018-03-21T20:19:58.916Z,60.90
2018-03-21T20:22:32.386Z,60.60
2018-03-21T20:25:05.208Z,60.60
2018-03-21T20:27:37.694Z,60.20
2018-03-21T20:30:10.191Z,60.60
2018-03-21T20:32:43.634Z,61.20
2018-03-21T20:35:16.204Z,60.20
2018-03-21T20:37:42.645Z,60.20
2018-03-21T20:40:09.244Z,60.50
2018-03-21T20:42:36.582Z,60.80
2018-03-21T20:45:03.773Z,60.80
2018-03-21T20:47:30.217Z,60.80
2018-03-21T20:49:56.640Z,60.90
2018-03-21T20:52:23.671Z,60.70
2018-03-21T20:54:50.112Z,60.70
2018-03-21T20:57:16.476Z,61.10
2018-03-21T20:59:42.976Z,61.00
2018-03-21T21:02:09.351Z,61.60
2018-03-21T21:04:41.949Z,61.30
2018-03-21T21:07:14.613Z,61.40
2018-03-21T21:09:47.398Z,61.90
2018-03-21T21:12:20.231Z,61.60
2018-03-21T21:14:52.766Z,61.00
2018-03-21T21:17:26.210Z,61.50
2018-03-21T21:19:58.790Z,61.40
2018-03-21T21:22:31.683Z,61.40
2018-03-21T21:25:04.200Z,61.50
2018-03-21T21:27:36.916Z,61.20
2018-03-21T21:30:09.440Z,61.30
2018-03-21T21:32:42.075Z,61.60
2018-03-21T21:35:14.836Z,60.90
2018-03-21T21:37:48.270Z,61.30
2018-03-21T21:40:20.854Z,61.30
2018-03-21T21:42:53.366Z,61.00
2018-03-21T21:45:25.900Z,61.20
2018-03-21T21:47:58.514Z,61.20
2018-03-21T21:50:31.249Z,60.50
2018-03-21T21:53:03.806Z,60.80
2018-03-21T21:55:36.497Z,60.60
2018-03-21T21:58:09.859Z,60.70
2018-03-21T22:00:42.545Z,60.60
2018-03-21T22:03:15.231Z,60.90
2018-03-21T22:05:49.186Z,60.90
2018-03-21T22:08:22.360Z,60.90
2018-03-21T22:10:54.799Z,60.80
2018-03-21T22:13:27.388Z,60.80
2018-03-21T22:15:59.961Z,60.70
2018-03-21T22:18:32.432Z,60.40
2018-03-21T22:21:05.777Z,60.80
2018-03-21T22:23:38.180Z,60.70
2018-03-21T22:26:10.900Z,60.80
2018-03-21T22:28:44.192Z,62.00
2018-03-21T22:31:17.377Z,61.20
2018-03-21T22:33:49.852Z,60.90
2018-03-21T22:36:23.056Z,61.20
2018-03-21T22:38:56.271Z,61.00
2018-03-21T22:41:28.937Z,61.00
2018-03-21T22:44:01.303Z,60.80
2018-03-21T22:46:33.932Z,60.70
2018-03-21T22:49:06.592Z,61.10
2018-03-21T22:51:39.255Z,60.90
2018-03-21T22:54:11.741Z,60.90
2018-03-21T22:56:44.269Z,60.90
2018-03-21T22:59:16.849Z,61.00
2018-03-21T23:01:49.380Z,61.10
2018-03-21T23:04:21.951Z,61.10
2018-03-21T23:06:55.212Z,61.50
2018-03-21T23:09:28.637Z,61.50
2018-03-21T23:12:01.152Z,61.40
2018-03-21T23:14:34.780Z,61.50
2018-03-21T23:17:08.837Z,61.70
2018-03-21T23:19:41.932Z,61.70
2018-03-21T23:22:15.155Z,62.00
2018-03-21T23:24:47.851Z,62.00
2018-03-21T23:27:20.502Z,62.20
2018-03-21T23:29:53.098Z,62.20
2018-03-21T23:32:26.425Z,62.10
2018-03-21T23:34:58.997Z,62.00
2018-03-21T23:37:31.459Z,62.10
2018-03-21T23:40:05.282Z,62.10
2018-03-21T23:42:37.966Z,62.10
2018-03-21T23:45:10.389Z,62.00
2018-03-21T23:47:42.857Z,62.20
2018-03-21T23:50:15.533Z,62.10
2018-03-21T23:52:48.069Z,61.90
2018-03-21T23:55:21.193Z,61.90
2018-03-21T23:57:54.621Z,61.90
